Time;durP1;ratioP1;P1;durP2;ratioP2;P2;SDS_P1;SDS_P2;PMS_P1;PMS_P2;Temp;Humidity;BMP_temperature;BMP_pressure;BME280_temperature;BME280_humidity;BME280_pressure;Samples;Min_cycle;Max_cycle;Signal;HPM_P1;HPM_P2
2021/01/07 00:00:20;;;;;;;3.92;3.38;;;5.60;99.90;;;;;;5076726;28;20210;-81
2021/01/07 00:02:46;;;;;;;3.40;3.10;;;5.60;99.90;;;;;;5071893;28;20213;-81
2021/01/07 00:05:13;;;;;;;5.43;3.83;;;5.60;99.90;;;;;;5079794;28;20638;-81
2021/01/07 00:07:39;;;;;;;4.90;2.97;;;5.60;99.90;;;;;;5072651;28;20197;-81
2021/01/07 00:10:07;;;;;;;4.40;3.08;;;5.60;99.90;;;;;;5084379;28;20189;-81
2021/01/07 00:12:34;;;;;;;3.95;3.40;;;5.50;99.90;;;;;;5089752;28;20391;-81
2021/01/07 00:15:00;;;;;;;4.25;3.42;;;5.60;99.90;;;;;;5073028;28;20205;-81
2021/01/07 00:17:26;;;;;;;4.60;3.50;;;5.60;99.90;;;;;;5087155;28;20194;-81
2021/01/07 00:19:53;;;;;;;5.07;3.40;;;5.50;99.90;;;;;;5078643;28;20221;-81
2021/01/07 00:22:19;;;;;;;3.78;3.00;;;5.50;99.90;;;;;;5091930;28;20225;-81
2021/01/07 00:24:45;;;;;;;4.93;3.10;;;5.60;99.90;;;;;;5085252;28;20190;-81
2021/01/07 00:27:12;;;;;;;4.25;3.85;;;5.60;99.90;;;;;;5072280;28;20213;-81
2021/01/07 00:29:39;;;;;;;5.43;4.07;;;5.60;99.90;;;;;;5083806;28;20548;-81
2021/01/07 00:32:06;;;;;;;4.22;3.00;;;5.50;99.90;;;;;;5082372;28;20694;-81
2021/01/07 00:34:33;;;;;;;4.07;3.40;;;5.50;99.90;;;;;;5081063;28;20206;-81
2021/01/07 00:37:00;;;;;;;4.43;4.03;;;5.50;99.90;;;;;;5091989;28;20239;-81
2021/01/07 00:39:26;;;;;;;5.18;3.70;;;5.50;99.90;;;;;;5095244;28;20208;-80
2021/01/07 00:41:54;;;;;;;4.03;2.97;;;5.50;99.90;;;;;;5094739;28;20272;-81
2021/01/07 00:44:21;;;;;;;3.72;2.97;;;5.60;99.90;;;;;;5089834;28;20194;-81
2021/01/07 00:46:47;;;;;;;4.30;3.25;;;5.50;99.90;;;;;;5086531;28;20687;-81
2021/01/07 00:49:13;;;;;;;4.13;3.72;;;5.50;99.90;;;;;;5093985;28;20197;-73
2021/01/07 00:51:40;;;;;;;5.40;2.95;;;5.50;99.90;;;;;;5095175;28;20284;-82
2021/01/07 00:54:06;;;;;;;3.50;3.08;;;5.50;99.90;;;;;;5080961;28;20411;-79
2021/01/07 00:56:36;;;;;;;4.30;3.03;;;5.60;99.90;;;;;;5088908;28;20197;-81
2021/01/07 00:59:03;;;;;;;4.15;3.50;;;5.50;99.90;;;;;;5082430;28;20208;-80
2021/01/07 01:01:30;;;;;;;4.70;4.20;;;5.50;99.90;;;;;;5075614;28;20217;-80
2021/01/07 01:03:56;;;;;;;3.45;3.15;;;5.50;99.90;;;;;;5075381;28;20198;-79
2021/01/07 01:06:30;;;;;;;4.68;3.45;;;5.50;99.90;;;;;;5093245;28;20638;-80
2021/01/07 01:08:56;;;;;;;4.35;3.35;;;5.50;99.90;;;;;;5091900;28;20655;-79
2021/01/07 01:11:22;;;;;;;4.78;3.42;;;5.50;99.90;;;;;;5080935;28;20221;-81
2021/01/07 01:13:49;;;;;;;3.08;2.78;;;5.50;99.90;;;;;;5075791;28;20284;-81
2021/01/07 01:16:15;;;;;;;5.03;3.40;;;5.50;99.90;;;;;;5084572;28;20200;-81
2021/01/07 01:18:42;;;;;;;4.03;3.10;;;5.50;99.90;;;;;;5087718;28;20289;-81
2021/01/07 01:21:09;;;;;;;3.72;3.40;;;5.50;99.90;;;;;;5074885;28;20226;-82
2021/01/07 01:23:35;;;;;;;6.60;4.10;;;5.50;99.90;;;;;;5087633;28;20198;-82
2021/01/07 01:26:01;;;;;;;3.78;3.45;;;5.50;99.90;;;;;;5089807;28;20200;-82
2021/01/07 01:28:27;;;;;;;3.97;3.58;;;5.40;99.90;;;;;;5095943;28;20292;-81
2021/01/07 01:30:54;;;;;;;3.03;2.67;;;5.50;99.90;;;;;;5092253;28;20251;-83
2021/01/07 01:33:20;;;;;;;4.75;3.88;;;5.50;99.90;;;;;;5075805;28;20198;-82
2021/01/07 01:35:47;;;;;;;3.65;3.20;;;5.50;99.90;;;;;;5082234;28;20202;-81
2021/01/07 01:38:13;;;;;;;3.53;3.22;;;5.50;99.90;;;;;;5095073;28;20225;-82
2021/01/07 01:40:40;;;;;;;3.28;2.83;;;5.50;99.90;;;;;;5077626;28;20226;-82
2021/01/07 01:43:07;;;;;;;5.10;3.60;;;5.50;99.90;;;;;;5075675;28;20265;-82
2021/01/07 01:45:34;;;;;;;5.32;3.28;;;5.50;99.90;;;;;;5083915;28;20205;-82
2021/01/07 01:48:00;;;;;;;4.13;3.40;;;5.50;99.90;;;;;;5089268;28;20598;-82
2021/01/07 01:50:26;;;;;;;3.42;2.80;;;5.50;99.90;;;;;;5074983;28;20194;-82
2021/01/07 01:52:54;;;;;;;4.03;3.40;;;5.40;99.90;;;;;;5076153;28;20198;-82
2021/01/07 01:55:20;;;;;;;3.78;3.45;;;5.40;99.90;;;;;;5094734;28;20262;-82
2021/01/07 01:57:48;;;;;;;6.43;3.35;;;5.40;99.90;;;;;;5093960;28;20506;-82
2021/01/07 02:00:15;;;;;;;4.25;3.55;;;5.40;99.90;;;;;;5094683;28;20559;-82
2021/01/07 02:02:41;;;;;;;3.83;3.45;;;5.40;99.90;;;;;;5094438;28;20202;-81
2021/01/07 02:05:08;;;;;;;2.60;2.40;;;5.50;99.90;;;;;;5094294;28;20193;-80
2021/01/07 02:07:37;;;;;;;3.45;3.15;;;5.40;99.90;;;;;;5093405;28;20193;-80
2021/01/07 02:10:06;;;;;;;4.38;3.65;;;5.40;99.90;;;;;;5094230;28;20289;-80
2021/01/07 02:12:33;;;;;;;4.38;3.97;;;5.40;99.90;;;;;;5076022;28;20646;-81
2021/01/07 02:14:59;;;;;;;4.43;4.03;;;5.40;99.90;;;;;;5074403;28;20202;-81
2021/01/07 02:17:26;;;;;;;3.90;2.85;;;5.40;99.90;;;;;;5093494;28;20227;-81
2021/01/07 02:19:57;;;;;;;5.75;3.65;;;5.40;99.90;;;;;;5092931;28;20210;-81
2021/01/07 02:22:23;;;;;;;4.50;3.40;;;5.40;99.90;;;;;;5074403;28;20191;-82
2021/01/07 02:24:50;;;;;;;4.43;3.70;;;5.50;99.90;;;;;;5074802;28;20194;-80
2021/01/07 02:27:16;;;;;;;3.80;2.90;;;5.50;99.90;;;;;;5074580;28;20208;-81
2021/01/07 02:29:43;;;;;;;4.10;3.70;;;5.50;99.90;;;;;;5075366;28;20217;-81
2021/01/07 02:32:09;;;;;;;4.25;3.15;;;5.50;99.90;;;;;;5073974;28;20205;-82
2021/01/07 02:34:35;;;;;;;5.60;4.20;;;5.50;99.90;;;;;;5087163;28;20189;-80
2021/01/07 02:37:03;;;;;;;5.60;3.60;;;5.50;99.90;;;;;;5092505;28;20227;-79
2021/01/07 02:39:29;;;;;;;5.20;4.03;;;5.50;99.90;;;;;;5094560;28;20296;-80
2021/01/07 02:41:57;;;;;;;4.68;4.07;;;5.50;99.90;;;;;;5094546;28;20306;-80
2021/01/07 02:44:24;;;;;;;5.25;3.38;;;5.50;99.90;;;;;;5076111;28;20208;-82
2021/01/07 02:46:51;;;;;;;5.40;3.65;;;5.50;99.90;;;;;;5086521;28;20646;-80
2021/01/07 02:49:17;;;;;;;3.47;3.17;;;5.40;99.90;;;;;;5093827;28;20196;-82
2021/01/07 02:51:44;;;;;;;3.80;3.22;;;5.50;99.90;;;;;;5078649;28;20247;-82
2021/01/07 02:54:11;;;;;;;4.10;3.58;;;5.40;99.90;;;;;;5093620;28;20209;-82
2021/01/07 02:56:38;;;;;;;3.90;3.58;;;5.40;99.90;;;;;;5093337;28;20541;-81
2021/01/07 02:59:04;;;;;;;4.82;4.35;;;5.40;99.90;;;;;;5093632;28;20197;-82
2021/01/07 03:01:32;;;;;;;5.85;3.95;;;5.40;99.90;;;;;;5081109;28;20267;-82
2021/01/07 03:03:58;;;;;;;4.70;4.25;;;5.50;99.90;;;;;;5082678;28;20205;-81
2021/01/07 03:06:25;;;;;;;4.18;3.58;;;5.40;99.90;;;;;;5073614;28;20216;-82
2021/01/07 03:08:52;;;;;;;4.57;4.13;;;5.40;99.90;;;;;;5073624;28;20198;-81
2021/01/07 03:11:19;;;;;;;4.97;3.80;;;5.40;99.90;;;;;;5084101;28;20222;-80
2021/01/07 03:13:46;;;;;;;6.55;5.47;;;5.50;99.90;;;;;;5093442;28;20292;-81
2021/01/07 03:16:12;;;;;;;4.32;3.63;;;5.40;99.90;;;;;;5091937;28;20223;-81
2021/01/07 03:18:38;;;;;;;7.50;5.07;;;5.40;99.90;;;;;;5076522;28;20190;-80
2021/01/07 03:21:05;;;;;;;4.80;4.40;;;5.40;99.90;;;;;;5075554;28;20220;-81
2021/01/07 03:23:31;;;;;;;6.40;4.72;;;5.40;99.90;;;;;;5072705;28;20270;-81
2021/01/07 03:25:57;;;;;;;6.05;4.68;;;5.40;99.90;;;;;;5073053;28;20197;-81
2021/01/07 03:28:25;;;;;;;5.88;5.38;;;5.40;99.90;;;;;;5073143;28;20202;-80
2021/01/07 03:30:51;;;;;;;8.52;5.82;;;5.40;99.90;;;;;;5078927;28;20186;-80
2021/01/07 03:33:17;;;;;;;6.72;5.65;;;5.40;99.90;;;;;;5092834;28;20197;-80
2021/01/07 03:35:44;;;;;;;10.18;6.55;;;5.40;99.90;;;;;;5090028;28;20193;-80
2021/01/07 03:38:10;;;;;;;9.88;6.30;;;5.40;99.90;;;;;;5089808;28;20244;-81
2021/01/07 03:40:36;;;;;;;8.05;5.80;;;5.40;99.90;;;;;;5073493;28;20216;-80
2021/01/07 03:43:03;;;;;;;8.80;6.57;;;5.40;99.90;;;;;;5086968;28;20189;-79
2021/01/07 03:45:30;;;;;;;6.97;5.75;;;5.40;99.90;;;;;;5091304;28;20197;-79
2021/01/07 03:47:57;;;;;;;7.78;6.30;;;5.40;99.90;;;;;;5092775;28;20202;-79
2021/01/07 03:50:23;;;;;;;10.05;7.53;;;5.40;99.90;;;;;;5090442;28;20232;-80
2021/01/07 03:52:49;;;;;;;7.68;6.57;;;5.40;99.90;;;;;;5082314;28;20322;-81
2021/01/07 03:55:15;;;;;;;9.80;7.60;;;5.30;99.90;;;;;;5090758;28;20189;-81
2021/01/07 03:57:42;;;;;;;8.95;7.22;;;5.30;99.90;;;;;;5072702;28;20204;-80
2021/01/07 04:00:09;;;;;;;8.52;7.07;;;5.40;99.90;;;;;;5072120;28;20673;-80
2021/01/07 04:02:36;;;;;;;10.07;7.07;;;5.40;99.90;;;;;;5092695;28;20193;-80
2021/01/07 04:05:03;;;;;;;7.55;6.53;;;5.40;99.90;;;;;;5075500;28;20194;-80
2021/01/07 04:07:30;;;;;;;10.73;7.57;;;5.40;99.90;;;;;;5072753;28;20204;-80
2021/01/07 04:09:56;;;;;;;10.75;8.52;;;5.40;99.90;;;;;;5072463;28;20198;-80
2021/01/07 04:12:22;;;;;;;9.65;7.18;;;5.40;99.90;;;;;;5072546;28;20267;-79
2021/01/07 04:14:49;;;;;;;11.82;8.63;;;5.30;99.90;;;;;;5072047;28;20201;-80
2021/01/07 04:17:15;;;;;;;11.52;8.77;;;5.30;99.90;;;;;;5088882;28;20250;-79
2021/01/07 04:19:43;;;;;;;14.45;8.60;;;5.40;99.90;;;;;;5088517;28;20592;-80
2021/01/07 04:22:09;;;;;;;9.77;8.77;;;5.40;99.90;;;;;;5088134;28;20222;-80
2021/01/07 04:24:35;;;;;;;12.73;7.90;;;5.40;99.90;;;;;;5092375;28;20549;-81
2021/01/07 04:27:03;;;;;;;12.50;9.43;;;5.40;99.90;;;;;;5092386;28;20198;-82
2021/01/07 04:29:29;;;;;;;15.75;10.05;;;5.40;99.90;;;;;;5092350;28;20292;-83
2021/01/07 04:31:55;;;;;;;11.38;8.52;;;5.30;99.90;;;;;;5091339;28;20189;-83
2021/01/07 04:34:22;;;;;;;11.27;9.82;;;5.40;99.90;;;;;;5085977;28;20212;-80
2021/01/07 04:36:49;;;;;;;15.52;10.10;;;5.40;99.90;;;;;;5072616;28;20229;-81
2021/01/07 04:39:16;;;;;;;14.68;9.93;;;5.40;99.90;;;;;;5077598;28;20257;-80
2021/01/07 04:41:42;;;;;;;11.82;9.30;;;5.40;99.90;;;;;;5087357;28;20217;-80
2021/01/07 04:44:08;;;;;;;12.40;8.68;;;5.40;99.90;;;;;;5072654;28;20198;-81
2021/01/07 04:46:35;;;;;;;14.65;9.57;;;5.30;99.90;;;;;;5073059;28;20202;-80
2021/01/07 04:49:02;;;;;;;14.15;10.65;;;5.40;99.90;;;;;;5082893;28;20246;-80
2021/01/07 04:51:29;;;;;;;16.10;10.40;;;5.30;99.90;;;;;;5084441;28;20192;-81
2021/01/07 04:53:56;;;;;;;13.40;11.65;;;5.30;99.90;;;;;;5072790;28;20194;-81
2021/01/07 04:56:23;;;;;;;14.93;9.95;;;5.40;99.90;;;;;;5074108;28;20198;-81
2021/01/07 04:58:49;;;;;;;13.63;9.80;;;5.30;99.90;;;;;;5071841;28;20202;-80
2021/01/07 05:01:15;;;;;;;15.35;10.63;;;5.40;99.90;;;;;;5083075;28;20233;-81
2021/01/07 05:03:45;;;;;;;15.88;10.52;;;5.30;99.90;;;;;;5089200;28;20218;-81
2021/01/07 05:06:12;;;;;;;16.38;10.82;;;5.30;99.90;;;;;;5072106;28;20198;-80
2021/01/07 05:08:38;;;;;;;13.57;10.57;;;5.30;99.90;;;;;;5072715;28;20278;-80
2021/01/07 05:11:06;;;;;;;15.60;11.55;;;5.30;99.90;;;;;;5074722;28;20239;-80
2021/01/07 05:13:32;;;;;;;17.48;12.93;;;5.40;99.90;;;;;;5073088;28;20202;-82
2021/01/07 05:15:58;;;;;;;18.85;11.95;;;5.40;99.90;;;;;;5082363;28;20190;-82
2021/01/07 05:18:25;;;;;;;15.48;11.93;;;5.40;99.90;;;;;;5094075;28;20220;-82
2021/01/07 05:20:51;;;;;;;17.38;11.25;;;5.40;99.90;;;;;;5095609;28;20220;-82
2021/01/07 05:23:21;;;;;;;18.45;11.77;;;5.40;99.90;;;;;;5076796;28;20204;-82
2021/01/07 05:25:55;;;;;;;15.90;12.15;;;5.40;99.90;;;;;;5078836;28;20221;-82
2021/01/07 05:28:22;;;;;;;18.20;11.30;;;5.30;99.90;;;;;;5095009;28;20189;-81
2021/01/07 05:30:49;;;;;;;15.60;11.30;;;5.40;99.90;;;;;;5095830;28;20219;-81
2021/01/07 05:33:18;;;;;;;14.93;10.70;;;5.30;99.90;;;;;;5097583;28;20628;-81
2021/01/07 05:35:44;;;;;;;15.73;11.95;;;5.30;99.90;;;;;;5095996;28;20193;-81
2021/01/07 05:38:10;;;;;;;15.43;12.38;;;5.30;99.90;;;;;;5097167;28;20240;-81
2021/01/07 05:40:37;;;;;;;16.92;12.15;;;5.30;99.90;;;;;;5080108;28;20588;-80
2021/01/07 05:43:12;;;;;;;16.15;13.05;;;5.40;99.90;;;;;;5078329;28;20197;-82
2021/01/07 05:45:42;;;;;;;16.48;11.68;;;5.30;99.90;;;;;;5087231;28;20700;-82
2021/01/07 05:48:10;;;;;;;14.65;10.35;;;5.40;99.90;;;;;;5093411;28;20514;-81
2021/01/07 05:50:38;;;;;;;17.48;12.07;;;5.40;99.90;;;;;;5092985;28;20666;-83
2021/01/07 05:53:05;;;;;;;15.00;10.18;;;5.40;99.90;;;;;;5094264;28;20262;-81
2021/01/07 05:55:31;;;;;;;15.85;10.15;;;5.30;99.90;;;;;;5095993;28;20197;-82
2021/01/07 05:57:59;;;;;;;12.30;8.80;;;5.30;99.90;;;;;;5087650;28;20209;-83
2021/01/07 06:00:29;;;;;;;11.77;10.00;;;5.30;99.90;;;;;;5079589;28;20212;-81
2021/01/07 06:02:59;;;;;;;11.90;9.60;;;5.30;99.90;;;;;;5075977;28;20205;-81
2021/01/07 06:05:25;;;;;;;11.73;9.00;;;5.30;99.90;;;;;;5075930;28;20557;-80
2021/01/07 06:07:53;;;;;;;14.18;9.70;;;5.30;99.90;;;;;;5075469;28;20198;-81
2021/01/07 06:10:21;;;;;;;14.75;10.40;;;5.30;99.90;;;;;;5079105;28;20221;-80
2021/01/07 06:12:48;;;;;;;12.30;9.27;;;5.30;99.90;;;;;;5095813;28;20193;-81
2021/01/07 06:15:17;;;;;;;12.02;8.73;;;5.30;99.90;;;;;;5096165;28;20284;-80
2021/01/07 06:17:45;;;;;;;13.05;9.63;;;5.30;99.90;;;;;;5090883;28;20534;-81
2021/01/07 06:20:16;;;;;;;12.13;8.88;;;5.30;99.90;;;;;;5085598;28;20212;-80
2021/01/07 06:22:45;;;;;;;11.35;8.38;;;5.30;99.90;;;;;;5090710;28;20197;-80
2021/01/07 06:25:13;;;;;;;11.25;8.70;;;5.30;99.90;;;;;;5093890;28;20201;-80
2021/01/07 06:27:42;;;;;;;11.30;8.88;;;5.30;99.90;;;;;;5090032;28;20191;-80
2021/01/07 06:30:34;;;;;;;11.80;8.05;;;5.30;99.90;;;;;;5078649;28;20652;-80
2021/01/07 06:33:03;;;;;;;14.27;7.20;;;5.30;99.90;;;;;;5090386;28;20281;-79
2021/01/07 06:35:35;;;;;;;10.77;7.65;;;5.30;99.90;;;;;;5082626;28;20189;-80
2021/01/07 06:38:01;;;;;;;9.48;8.15;;;5.30;99.90;;;;;;5088250;28;20213;-80
2021/01/07 06:40:28;;;;;;;11.35;7.93;;;5.30;99.90;;;;;;5093968;28;20217;-79
2021/01/07 06:42:55;;;;;;;9.48;8.25;;;5.30;99.90;;;;;;5074927;28;20205;-80
2021/01/07 06:45:23;;;;;;;9.13;6.97;;;5.30;99.90;;;;;;5075967;28;20217;-81
2021/01/07 06:47:52;;;;;;;10.38;7.60;;;5.30;99.90;;;;;;5074561;28;21792;-81
2021/01/07 06:50:18;;;;;;;10.38;7.45;;;5.30;99.90;;;;;;5077625;28;20200;-80
2021/01/07 06:52:48;;;;;;;9.95;8.13;;;5.30;99.90;;;;;;5084868;28;20275;-80
2021/01/07 06:55:16;;;;;;;9.35;7.47;;;5.30;99.90;;;;;;5073381;28;20206;-81
2021/01/07 06:57:44;;;;;;;9.00;6.97;;;5.30;99.90;;;;;;5074255;28;20198;-83
2021/01/07 07:00:12;;;;;;;8.70;6.82;;;5.30;99.90;;;;;;5083220;28;20214;-82
2021/01/07 07:02:39;;;;;;;10.15;7.55;;;5.30;99.90;;;;;;5078995;28;20623;-83
2021/01/07 07:05:07;;;;;;;9.10;6.63;;;5.30;99.90;;;;;;5092874;28;20228;-82
2021/01/07 07:07:58;;;;;;;8.52;7.25;;;5.30;99.90;;;;;;5091227;28;20208;-82
2021/01/07 07:11:00;;;;;;;7.60;6.47;;;5.30;99.90;;;;;;5078682;28;20625;-84
2021/01/07 07:13:31;;;;;;;9.20;7.15;;;5.30;99.90;;;;;;5071316;28;20193;-82
2021/01/07 07:16:02;;;;;;;8.60;7.05;;;5.40;99.90;;;;;;5084665;28;20185;-82
2021/01/07 07:18:33;;;;;;;7.95;6.32;;;5.30;99.90;;;;;;5075576;28;20206;-84
2021/01/07 07:21:13;;;;;;;8.00;6.38;;;5.30;99.90;;;;;;5076313;28;20450;-84
2021/01/07 07:23:42;;;;;;;8.00;6.80;;;5.30;99.90;;;;;;5075081;28;20751;-82
2021/01/07 07:26:11;;;;;;;7.88;6.95;;;5.30;99.90;;;;;;5073610;28;20581;-81
2021/01/07 07:28:37;;;;;;;9.27;5.82;;;5.30;99.90;;;;;;5083818;28;20197;-81
2021/01/07 07:31:04;;;;;;;8.25;6.72;;;5.30;99.90;;;;;;5087362;28;20204;-81
2021/01/07 07:33:35;;;;;;;8.10;5.57;;;5.30;99.90;;;;;;5081558;28;20205;-82
2021/01/07 07:36:02;;;;;;;7.53;6.45;;;5.30;99.90;;;;;;5073988;28;20255;-81
2021/01/07 07:38:33;;;;;;;8.30;7.10;;;5.30;99.90;;;;;;5073930;28;20304;-80
2021/01/07 07:41:03;;;;;;;7.03;5.95;;;5.30;99.90;;;;;;5082954;28;20690;-80
2021/01/07 07:43:31;;;;;;;8.88;5.28;;;5.20;99.90;;;;;;5073241;28;20622;-81
2021/01/07 07:45:59;;;;;;;8.50;5.53;;;5.30;99.90;;;;;;5072682;28;20205;-81
2021/01/07 07:48:26;;;;;;;6.05;5.35;;;5.20;99.90;;;;;;5076119;28;20313;-81
2021/01/07 07:51:04;;;;;;;9.70;6.75;;;5.30;99.90;;;;;;5088903;28;20272;-81
2021/01/07 07:53:31;;;;;;;8.68;5.80;;;5.20;99.90;;;;;;5082604;28;20228;-81
2021/01/07 07:55:57;;;;;;;7.47;6.68;;;5.30;99.90;;;;;;5093159;28;20208;-81
2021/01/07 07:58:25;;;;;;;6.07;5.20;;;5.20;99.90;;;;;;5077776;28;20198;-81
2021/01/07 08:00:52;;;;;;;9.10;5.68;;;5.20;99.90;;;;;;5076165;28;20826;-80
2021/01/07 08:03:26;;;;;;;6.07;5.00;;;5.30;99.90;;;;;;5091714;28;20251;-80
2021/01/07 08:05:53;;;;;;;6.53;5.03;;;5.30;99.90;;;;;;5072441;28;20190;-81
2021/01/07 08:08:24;;;;;;;7.32;5.82;;;5.30;99.90;;;;;;5079210;28;20239;-80
2021/01/07 08:10:51;;;;;;;7.85;5.78;;;5.30;99.90;;;;;;5075981;28;20718;-81
2021/01/07 08:13:21;;;;;;;7.63;6.13;;;5.30;99.90;;;;;;5083173;28;20632;-80
2021/01/07 08:15:49;;;;;;;5.78;4.85;;;5.30;99.90;;;;;;5089308;28;20190;-81
2021/01/07 08:18:17;;;;;;;6.30;5.18;;;5.40;99.90;;;;;;5076767;28;20194;-81
2021/01/07 08:20:43;;;;;;;6.80;5.53;;;5.30;99.90;;;;;;5073221;28;20218;-82
2021/01/07 08:23:10;;;;;;;5.53;4.80;;;5.30;99.90;;;;;;5081826;28;20523;-80
2021/01/07 08:25:37;;;;;;;5.18;4.68;;;5.30;99.90;;;;;;5075934;28;20206;-80
2021/01/07 08:28:12;;;;;;;8.02;5.30;;;5.30;99.90;;;;;;5081300;28;20198;-81
2021/01/07 08:30:43;;;;;;;7.30;5.32;;;5.30;99.90;;;;;;5071966;28;20201;-80
2021/01/07 08:33:12;;;;;;;5.70;4.80;;;5.30;99.90;;;;;;5072255;28;20212;-80
2021/01/07 08:35:38;;;;;;;7.05;5.40;;;5.30;99.90;;;;;;5078375;28;20193;-80
2021/01/07 08:38:05;;;;;;;5.28;4.70;;;5.30;99.90;;;;;;5073099;28;20721;-80
2021/01/07 08:40:32;;;;;;;7.45;5.07;;;5.30;99.90;;;;;;5091593;28;20217;-79
2021/01/07 08:43:10;;;;;;;5.97;5.32;;;5.30;99.90;;;;;;5090863;28;20534;-80
2021/01/07 08:45:36;;;;;;;6.97;5.07;;;5.30;99.90;;;;;;5079413;28;20202;-81
2021/01/07 08:48:09;;;;;;;5.75;5.05;;;5.30;99.90;;;;;;5073244;28;20593;-75
2021/01/07 08:50:36;;;;;;;7.22;5.68;;;5.20;99.90;;;;;;5091963;28;20205;-77
2021/01/07 08:53:08;;;;;;;6.20;4.95;;;5.30;99.90;;;;;;5075548;28;20233;-80
2021/01/07 08:55:48;;;;;;;6.90;5.03;;;5.30;99.90;;;;;;5075931;28;20634;-81
2021/01/07 08:58:22;;;;;;;6.60;4.97;;;5.30;99.90;;;;;;5088888;28;20653;-78
2021/01/07 09:00:49;;;;;;;8.00;6.10;;;5.30;99.90;;;;;;5087269;28;20213;-79
2021/01/07 09:03:16;;;;;;;6.50;5.50;;;5.30;99.90;;;;;;5095553;28;20202;-78
2021/01/07 09:05:43;;;;;;;6.72;5.32;;;5.40;99.90;;;;;;5078410;28;20202;-79
2021/01/07 09:08:11;;;;;;;7.97;5.53;;;5.30;99.90;;;;;;5094660;28;20189;-82
2021/01/07 09:10:37;;;;;;;7.68;5.50;;;5.30;99.90;;;;;;5083927;28;20198;-76
2021/01/07 09:13:20;;;;;;;9.32;5.85;;;5.40;99.90;;;;;;5090805;28;20201;-80
2021/01/07 09:15:47;;;;;;;8.25;5.40;;;5.30;99.90;;;;;;5087751;28;20224;-80
2021/01/07 09:18:18;;;;;;;7.43;5.85;;;5.30;99.90;;;;;;5086186;28;20677;-80
2021/01/07 09:20:45;;;;;;;7.30;5.55;;;5.30;99.90;;;;;;5095293;28;20210;-80
2021/01/07 09:23:14;;;;;;;8.60;5.82;;;5.20;99.90;;;;;;5088272;28;20526;-80
2021/01/07 09:25:41;;;;;;;6.85;5.43;;;5.20;99.90;;;;;;5075652;28;20221;-80
2021/01/07 09:28:08;;;;;;;7.32;6.63;;;5.30;99.90;;;;;;5076045;28;20198;-80
2021/01/07 09:30:34;;;;;;;8.48;6.20;;;5.30;99.90;;;;;;5091819;28;20194;-80
2021/01/07 09:33:01;;;;;;;7.60;5.93;;;5.40;99.90;;;;;;5081645;28;20235;-80
2021/01/07 09:35:28;;;;;;;6.43;5.53;;;5.30;99.90;;;;;;5095486;28;20227;-80
2021/01/07 09:37:55;;;;;;;8.43;6.65;;;5.30;99.90;;;;;;5076084;28;20226;-80
2021/01/07 09:40:22;;;;;;;7.68;6.03;;;5.30;99.90;;;;;;5094214;28;20198;-79
2021/01/07 09:42:48;;;;;;;6.80;5.20;;;5.30;99.90;;;;;;5094381;28;20225;-82
2021/01/07 09:45:15;;;;;;;9.18;6.47;;;5.30;99.90;;;;;;5087181;28;20201;-80
2021/01/07 09:47:41;;;;;;;8.57;5.95;;;5.30;99.90;;;;;;5080846;28;20307;-79
2021/01/07 09:50:09;;;;;;;8.00;6.70;;;5.30;99.90;;;;;;5091749;28;20194;-80
2021/01/07 09:52:36;;;;;;;6.43;4.95;;;5.30;99.90;;;;;;5094902;28;20533;-80
2021/01/07 09:55:05;;;;;;;7.00;5.95;;;5.40;99.90;;;;;;5081835;28;20527;-80
2021/01/07 09:57:31;;;;;;;10.05;6.22;;;5.30;99.90;;;;;;5074524;28;20214;-80
2021/01/07 09:59:58;;;;;;;6.70;6.00;;;5.30;99.90;;;;;;5074375;28;20638;-80
2021/01/07 10:02:24;;;;;;;7.95;6.90;;;5.30;99.90;;;;;;5074297;28;20698;-80
2021/01/07 10:04:50;;;;;;;6.60;5.90;;;5.30;99.90;;;;;;5082838;28;20206;-82
2021/01/07 10:07:16;;;;;;;7.43;5.40;;;5.30;99.90;;;;;;5074830;28;20204;-79
2021/01/07 10:09:43;;;;;;;6.30;5.45;;;5.30;99.90;;;;;;5074055;28;20194;-80
2021/01/07 10:12:10;;;;;;;7.18;5.88;;;5.30;99.90;;;;;;5080149;28;20208;-80
2021/01/07 10:14:37;;;;;;;8.25;5.82;;;5.30;99.90;;;;;;5075820;28;20281;-79
2021/01/07 10:17:05;;;;;;;9.48;6.28;;;5.30;99.90;;;;;;5089553;28;20201;-79
2021/01/07 10:19:33;;;;;;;7.55;6.07;;;5.40;99.90;;;;;;5080136;28;20193;-80
2021/01/07 10:22:02;;;;;;;7.95;6.50;;;5.30;99.90;;;;;;5077620;28;20306;-79
2021/01/07 10:24:30;;;;;;;6.15;5.57;;;5.30;99.90;;;;;;5089814;28;20204;-80
2021/01/07 10:27:01;;;;;;;11.77;6.75;;;5.30;99.90;;;;;;5081408;28;20206;-79
2021/01/07 10:29:30;;;;;;;8.88;7.43;;;5.30;99.90;;;;;;5074032;28;20189;-82
2021/01/07 10:32:05;;;;;;;7.28;5.57;;;5.30;99.90;;;;;;5074951;28;20189;-81
2021/01/07 10:34:34;;;;;;;7.97;6.35;;;5.30;99.90;;;;;;5083049;28;20571;-81
2021/01/07 10:37:03;;;;;;;7.03;6.20;;;5.30;99.90;;;;;;5076666;28;20245;-80
2021/01/07 10:39:32;;;;;;;6.45;5.55;;;5.30;99.90;;;;;;5103281;28;20197;-81
2021/01/07 10:41:59;;;;;;;7.80;5.55;;;5.30;99.90;;;;;;5080799;28;20680;-81
2021/01/07 10:44:28;;;;;;;6.30;5.68;;;5.40;99.90;;;;;;5074519;28;20206;-81
2021/01/07 10:47:00;;;;;;;7.97;6.45;;;5.30;99.90;;;;;;5073559;28;20566;-81
2021/01/07 10:49:29;;;;;;;7.65;5.75;;;5.40;99.90;;;;;;5074677;28;20289;-78
2021/01/07 10:52:13;;;;;;;7.75;5.95;;;5.40;99.90;;;;;;5082353;28;20208;-78
2021/01/07 10:54:50;;;;;;;8.95;6.50;;;5.40;99.90;;;;;;5078279;28;20182;-80
2021/01/07 10:57:42;;;;;;;8.15;5.63;;;5.40;99.90;;;;;;5073663;28;20220;-81
2021/01/07 11:00:13;;;;;;;8.88;6.70;;;5.40;99.90;;;;;;5093452;28;20247;-80
2021/01/07 11:03:09;;;;;;;10.73;6.95;;;5.50;99.90;;;;;;5085905;28;20307;-81
2021/01/07 11:05:39;;;;;;;6.07;5.30;;;5.50;99.90;;;;;;5075158;28;20198;-80
2021/01/07 11:08:14;;;;;;;7.20;6.18;;;5.50;99.90;;;;;;5087844;28;20202;-81
2021/01/07 11:10:44;;;;;;;11.48;7.53;;;5.40;99.90;;;;;;5084351;28;20190;-81
2021/01/07 11:13:11;;;;;;;9.93;7.72;;;5.40;99.90;;;;;;5075170;28;20247;-81
2021/01/07 11:15:43;;;;;;;9.00;6.95;;;5.40;99.90;;;;;;5084082;28;20201;-81
2021/01/07 11:18:13;;;;;;;9.63;7.00;;;5.50;99.90;;;;;;5093103;28;20186;-80
2021/01/07 11:20:43;;;;;;;8.50;6.95;;;5.50;99.90;;;;;;5092261;28;20225;-79
2021/01/07 11:23:10;;;;;;;12.30;7.25;;;5.50;99.90;;;;;;5073661;28;20297;-80
2021/01/07 11:25:37;;;;;;;8.98;5.88;;;5.50;99.90;;;;;;5073278;28;20208;-80
2021/01/07 11:28:05;;;;;;;7.97;6.35;;;5.50;99.90;;;;;;5072868;28;20286;-80
2021/01/07 11:30:31;;;;;;;9.52;7.70;;;5.50;99.90;;;;;;5072833;28;20209;-80
2021/01/07 11:33:03;;;;;;;9.07;6.90;;;5.60;99.90;;;;;;5072606;28;20212;-81
2021/01/07 11:35:31;;;;;;;11.38;7.95;;;5.60;99.90;;;;;;5073140;28;20200;-80
2021/01/07 11:38:01;;;;;;;10.20;7.82;;;5.60;99.90;;;;;;5072532;28;20226;-80
2021/01/07 11:40:37;;;;;;;8.80;7.90;;;5.70;99.90;;;;;;5072198;28;20213;-80
2021/01/07 11:43:51;;;;;;;12.10;8.35;;;5.60;99.90;;;;;;5076533;28;20198;-76
2021/01/07 11:46:19;;;;;;;8.77;7.28;;;5.60;99.90;;;;;;5075785;28;20201;-79
2021/01/07 11:48:50;;;;;;;11.07;8.52;;;5.60;99.90;;;;;;5072363;28;20281;-79
2021/01/07 11:51:17;;;;;;;12.48;8.70;;;5.60;99.90;;;;;;5080113;28;20683;-81
2021/01/07 11:53:44;;;;;;;10.75;8.85;;;5.70;99.90;;;;;;5090417;28;20277;-78
2021/01/07 11:56:12;;;;;;;10.00;8.23;;;5.60;99.90;;;;;;5091984;28;20637;-78
2021/01/07 11:58:41;;;;;;;10.02;8.30;;;5.60;99.90;;;;;;5074532;28;20202;-78
2021/01/07 12:01:08;;;;;;;11.27;9.55;;;5.50;99.90;;;;;;5085528;28;20805;-78
2021/01/07 12:03:35;;;;;;;10.52;8.10;;;5.50;99.90;;;;;;5072560;28;20198;-78
2021/01/07 12:06:03;;;;;;;11.73;9.18;;;5.50;99.90;;;;;;5072241;28;20224;-78
2021/01/07 12:08:44;;;;;;;10.25;8.50;;;5.60;99.90;;;;;;5084593;28;20216;-80
2021/01/07 12:11:16;;;;;;;11.13;8.75;;;5.60;99.90;;;;;;5072510;28;20186;-77
2021/01/07 12:13:51;;;;;;;12.48;8.23;;;5.60;99.90;;;;;;5090178;28;20206;-80
2021/01/07 12:16:24;;;;;;;12.07;7.85;;;5.60;99.90;;;;;;5088743;28;20658;-84
2021/01/07 12:18:51;;;;;;;10.02;8.23;;;5.70;99.90;;;;;;5090666;28;20219;-80
2021/01/07 12:21:19;;;;;;;9.70;8.07;;;5.70;99.90;;;;;;5084067;28;20213;-82
2021/01/07 12:23:47;;;;;;;9.77;7.93;;;5.70;99.90;;;;;;5078138;28;20194;-83
2021/01/07 12:26:14;;;;;;;11.70;9.27;;;5.70;99.90;;;;;;5074782;28;20664;-82
2021/01/07 12:28:43;;;;;;;11.82;8.95;;;5.80;99.90;;;;;;5090464;28;20198;-80
2021/01/07 12:31:10;;;;;;;11.90;9.10;;;5.80;99.90;;;;;;5086507;28;20263;-81
2021/01/07 12:33:53;;;;;;;11.68;8.63;;;5.70;99.90;;;;;;5071777;28;20198;-82
2021/01/07 12:36:27;;;;;;;12.77;9.13;;;5.70;99.90;;;;;;5071587;28;20197;-83
2021/01/07 12:39:05;;;;;;;14.85;9.93;;;5.70;99.90;;;;;;5078593;28;20193;-82
2021/01/07 12:41:42;;;;;;;9.85;8.15;;;5.70;99.90;;;;;;5071859;28;20596;-82
2021/01/07 12:44:12;;;;;;;11.23;8.90;;;5.70;99.90;;;;;;5072184;28;20296;-83
2021/01/07 12:46:45;;;;;;;12.50;9.00;;;5.70;99.90;;;;;;5076953;28;20190;-83
2021/01/07 12:49:14;;;;;;;12.15;8.40;;;5.80;99.90;;;;;;5082915;28;20190;-83
2021/01/07 12:51:41;;;;;;;13.43;9.68;;;5.70;99.90;;;;;;5072778;28;20202;-83
2021/01/07 12:54:09;;;;;;;9.93;8.02;;;5.70;99.90;;;;;;5071355;28;20201;-82
2021/01/07 12:56:46;;;;;;;10.93;8.55;;;5.70;99.90;;;;;;5091432;28;20202;-82
2021/01/07 12:59:14;;;;;;;10.38;9.02;;;5.70;99.90;;;;;;5082799;28;20209;-80